Sleepy Eye, Minnesota
Current Conditions -  °F | °C
As of 2:34 AM on Sunday 23 Nov 2014 (Local Time) from KULM Reporting Station
Haze Haze  
Wind Chill: 42°   Ceiling: Unl
Heat Index: 46°   Visibility: 5mi
Dew Point: 46°   Wind: 8mph
Humidity: 100%   Direction: 200°SSW
Pressure: 29.45"   Gusts: NA
Location:  44.3°N, 94.72°W
Report Text: KULM 230834Z AUTO 20007KT 5SM BR SCT015 08/08 A2945 RMK AO2
Loading
Personal Weather Stations






























Interactive Weather Map New forecast layout! Learn more

10-Day Weather Forecast

Advertisements
Track Severe Weather on mobile